Arapaho — WCX9424 — position and weather

sailwx.info

Track history (hours):
 
Tides and Currents Weather Stations Pressure Air Temp Water Temp Dewpoint Dewpoint Depression Visibility Wind Speed Wind Dir Waves Ship Positions

Arapaho

Owner: SAUSE BROTHERS OCEAN TOWING CO INC, LONG BEACH, CA. More information available from US FCC via Universal Licensing System and Coast Guard Vessel Documentation Center.

Last reported at 2017-Jun-13 19:41 UTC. Time now 2017-Jun-25 13:41 UTC.
Position N 33°46' W 118°13'.
Warning: this ship's position is 11 days out of date.

Length 37 m; draft 1.5 m.

Type: Towing. MMSI: 367004270.

Date/timePositionNaut miles runAvg speedWind from/ knotsBaromVisibWave heightAir tempDewpointWater temp
2017-Jun-13 19:41N 33°46' W 118°13'  
2017-Jun-09 19:52N 33°46' W 118°13'0 0.0
2017-Jun-09 19:20N 33°46' W 118°13'0 0.0
2017-Jun-09 18:54N 33°46' W 118°13'0 0.0
2017-Jun-09 17:53N 33°46' W 118°13'0 0.0
2017-Jun-09 17:28N 33°46' W 118°13'0 0.0
2017-Jun-09 16:38N 33°46' W 118°13'0 0.0
2017-Jun-09 16:29N 33°46' W 118°13'0 0.0
2017-Jun-09 14:24N 33°46' W 118°13'0 0.0
2017-Jun-09 01:30N 33°46' W 118°13'0 0.0
2017-Jun-08 23:39N 33°46' W 118°13'0 0.0
2017-Jun-08 22:08N 33°46' W 118°13'0 0.0
2017-Jun-08 20:55N 33°46' W 118°13'0 0.0
2017-Jun-08 20:26N 33°46' W 118°13'0 0.0
2017-Jun-08 18:45N 33°46' W 118°13'0 0.2
2017-Jun-08 17:19N 33°46' W 118°13'4 3.2
2017-Jun-08 16:09N 33°45' W 118°09'0 1.6
2017-Jun-08 15:56N 33°44' W 118°09'0 0.2
2017-Jun-08 15:22N 33°44' W 118°09'3 4.3
2017-Jun-08 14:34N 33°46' W 118°13'0 0.0
2017-Jun-08 12:02N 33°46' W 118°13'0 0.0
2017-Jun-08 08:57N 33°46' W 118°13'0 0.0
2017-Jun-08 08:24N 33°46' W 118°13'0 0.0
2017-Jun-08 07:52N 33°46' W 118°13'0 0.0
2017-Jun-08 07:27N 33°46' W 118°13'0 0.0
2017-Jun-08 06:49N 33°46' W 118°13'0 0.0
2017-Jun-08 05:46N 33°46' W 118°13'0 0.0
2017-Jun-08 05:29N 33°46' W 118°13'0 0.0
2017-Jun-08 05:00N 33°46' W 118°13'0 0.0
2017-Jun-08 04:29N 33°46' W 118°13'0 0.0
2017-Jun-08 04:00N 33°46' W 118°13'0 0.0
2017-Jun-08 01:48N 33°46' W 118°13'0 0.0
2017-Jun-08 01:29N 33°46' W 118°13'0 0.0
2017-Jun-08 00:45N 33°46' W 118°13'0 0.0
2017-Jun-08 00:29N 33°46' W 118°13'0 0.0
2017-Jun-07 23:59N 33°46' W 118°13'0 0.0
2017-Jun-07 22:31N 33°46' W 118°13'0 0.0
2017-Jun-07 22:20N 33°46' W 118°13'0 0.3
2017-Jun-07 21:53N 33°46' W 118°13'2 6.3
2017-Jun-07 21:30N 33°44' W 118°12'2 2.7
2017-Jun-07 20:50N 33°45' W 118°10'0 1.2
2017-Jun-07 20:27N 33°45' W 118°11'1 0.7
2017-Jun-07 18:39N 33°45' W 118°12'0 0.4
2017-Jun-07 18:27N 33°45' W 118°12'0 0.0
2017-Jun-07 06:06N 33°45' W 118°12'0 0.0
2017-Jun-07 03:57N 33°45' W 118°12'0 0.0
2017-Jun-07 03:23N 33°45' W 118°12'0 0.0
2017-Jun-07 02:40N 33°45' W 118°12'0 0.0
2017-Jun-07 01:54N 33°45' W 118°12'0 0.0
2017-Jun-07 01:30N 33°45' W 118°12'0 0.0
2017-Jun-07 01:00N 33°45' W 118°12'0 0.0
2017-Jun-07 00:30N 33°45' W 118°12'1 2.6
2017-Jun-07 00:00N 33°45' W 118°11'1 0.4
2017-Jun-06 22:08N 33°45' W 118°10'0 1.2
2017-Jun-06 21:58N 33°45' W 118°10'2 1.4
2017-Jun-06 20:32N 33°44' W 118°12'0 6.8
2017-Jun-06 20:30N 33°44' W 118°12'2 3.0
2017-Jun-06 19:53N 33°45' W 118°11'1 0.2
2017-Jun-06 16:31N 33°45' W 118°10'0 0.0
2017-Jun-06 16:29N 33°45' W 118°10'3 0.3
2017-Jun-06 07:03N 33°46' W 118°13'0 6.9
2017-Jun-06 07:00N 33°45' W 118°13'3 5.2
2017-Jun-06 06:30N 33°43' W 118°14'2 4.3
2017-Jun-06 05:57N 33°45' W 118°17'1 1.2
2017-Jun-06 05:24N 33°45' W 118°16'3 4.0
2017-Jun-06 04:45N 33°44' W 118°13'2 4.7
2017-Jun-06 04:24N 33°46' W 118°13'2 3.7
2017-Jun-06 03:45N 33°44' W 118°13'0 1.2
2017-Jun-06 03:25N 33°44' W 118°13'2 4.5
2017-Jun-06 02:58N 33°46' W 118°13'0 0.0
2017-Jun-06 00:27N 33°46' W 118°13'0 0.0
2017-Jun-05 21:36N 33°46' W 118°13'0 0.0
2017-Jun-05 21:29N 33°46' W 118°13'0 0.0
2017-Jun-05 20:44N 33°46' W 118°13'0 0.0
2017-Jun-05 20:28N 33°46' W 118°13'0 0.0
2017-Jun-05 19:59N 33°46' W 118°13'0 0.0
2017-Jun-05 19:30N 33°46' W 118°13'0 0.5
2017-Jun-05 19:00N 33°46' W 118°13'1 2.4
2017-Jun-05 18:24N 33°44' W 118°13'2 4.0
2017-Jun-05 18:00N 33°46' W 118°13'0 0.0
2017-Jun-05 17:30N 33°46' W 118°13'0 0.0
2017-Jun-05 16:29N 33°46' W 118°13'0 0.0
2017-Jun-05 15:51N 33°46' W 118°13'0 0.0
2017-Jun-05 15:30N 33°46' W 118°13'0 0.0
2017-Jun-05 15:00N 33°46' W 118°13'0 0.0
2017-Jun-05 14:00N 33°46' W 118°13'0 0.0
2017-Jun-05 13:29N 33°46' W 118°13'0 0.0
2017-Jun-05 12:59N 33°46' W 118°13'0 0.0
2017-Jun-05 12:30N 33°46' W 118°13'0 0.0
2017-Jun-05 11:56N 33°46' W 118°13'0 0.0
2017-Jun-05 11:29N 33°46' W 118°13'0 0.0
2017-Jun-05 10:59N 33°46' W 118°13'0 0.0
2017-Jun-05 10:30N 33°46' W 118°13'0 0.0
2017-Jun-05 09:58N 33°46' W 118°13'0 0.0
2017-Jun-05 09:30N 33°46' W 118°13'0 0.0
2017-Jun-05 08:48N 33°46' W 118°13'0 0.0
2017-Jun-05 08:28N 33°46' W 118°13'0 0.0
2017-Jun-05 07:53N 33°46' W 118°13'0 0.0
2017-Jun-05 07:30N 33°46' W 118°13'0 0.0
2017-Jun-05 07:00N 33°46' W 118°13'0 0.0
2017-Jun-05 06:28N 33°46' W 118°13'0 0.0
2017-Jun-05 06:00N 33°46' W 118°13'0 0.0
2017-Jun-05 05:30N 33°46' W 118°13'0 0.0
2017-Jun-05 05:00N 33°46' W 118°13'0 0.0
2017-Jun-05 04:30N 33°46' W 118°13'0 0.0
2017-Jun-05 04:00N 33°46' W 118°13'0 0.0
2017-Jun-05 03:29N 33°46' W 118°13'0 0.0
2017-Jun-05 03:00N 33°46' W 118°13'0 0.0
2017-Jun-05 02:30N 33°46' W 118°13'0 0.0
2017-Jun-05 02:00N 33°46' W 118°13'0 0.0
2017-Jun-05 01:30N 33°46' W 118°13'0 0.0
2017-Jun-05 01:00N 33°46' W 118°13'0 0.0
2017-Jun-05 00:30N 33°46' W 118°13'0 0.0
2017-Jun-05 00:00N 33°46' W 118°13'0 0.0
2017-Jun-04 23:30N 33°46' W 118°13'0 0.0
2017-Jun-04 23:00N 33°46' W 118°13'0 0.0
2017-Jun-04 22:31N 33°46' W 118°13'0 0.0
2017-Jun-04 21:59N 33°46' W 118°13'0 0.0
2017-Jun-04 21:30N 33°46' W 118°13'0 0.0
2017-Jun-04 21:00N 33°46' W 118°13'0 0.0
2017-Jun-04 20:30N 33°46' W 118°13'0 0.0
2017-Jun-04 20:00N 33°46' W 118°13'0 0.0
2017-Jun-04 19:11N 33°46' W 118°13'0 0.0
2017-Jun-04 19:00N 33°46' W 118°13'0 0.0
2017-Jun-04 18:30N 33°46' W 118°13'0 0.0
2017-Jun-04 18:00N 33°46' W 118°13'0 0.0
2017-Jun-04 17:30N 33°46' W 118°13'0 0.0
2017-Jun-04 17:00N 33°46' W 118°13'0 0.0
2017-Jun-04 16:30N 33°46' W 118°13'0 0.0
2017-Jun-04 16:00N 33°46' W 118°13'0 0.0
2017-Jun-04 15:30N 33°46' W 118°13'0 0.0
2017-Jun-04 15:00N 33°46' W 118°13'0 0.0
2017-Jun-04 14:30N 33°46' W 118°13'0 0.0
2017-Jun-04 13:29N 33°46' W 118°13'0 0.0
2017-Jun-04 13:00N 33°46' W 118°13'0 0.0
2017-Jun-04 12:30N 33°46' W 118°13'0 0.0
2017-Jun-04 12:00N 33°46' W 118°13'0 0.0
2017-Jun-04 11:30N 33°46' W 118°13'0 0.0
2017-Jun-04 10:32N 33°46' W 118°13'0 0.0
2017-Jun-04 10:30N 33°46' W 118°13'0 0.0
2017-Jun-04 10:00N 33°46' W 118°13'0 0.0
2017-Jun-04 09:30N 33°46' W 118°13'0 0.0
2017-Jun-04 08:44N 33°46' W 118°13'0 0.0
2017-Jun-04 08:05N 33°46' W 118°13'0 0.0
2017-Jun-04 07:41N 33°46' W 118°13'0 0.0
2017-Jun-04 07:27N 33°46' W 118°13'0 0.0
2017-Jun-04 06:59N 33°46' W 118°13'0 0.0
2017-Jun-04 06:30N 33°46' W 118°13'0 0.0
2017-Jun-04 06:00N 33°46' W 118°13'0 0.0
2017-Jun-04 05:30N 33°46' W 118°13'0 0.0
2017-Jun-04 05:01N 33°46' W 118°13'0 0.0
2017-Jun-04 04:30N 33°46' W 118°13'0 0.0
2017-Jun-04 03:59N 33°46' W 118°13'0 0.0
2017-Jun-04 03:30N 33°46' W 118°13'0 0.0
2017-Jun-04 03:00N 33°46' W 118°13'0 0.0
2017-Jun-04 02:30N 33°46' W 118°13'0 0.0
2017-Jun-04 02:00N 33°46' W 118°13'0 0.0
2017-Jun-04 01:30N 33°46' W 118°13'0 0.0
2017-Jun-04 01:00N 33°46' W 118°13'0 0.0
2017-Jun-04 00:30N 33°46' W 118°13'0 0.0
2017-Jun-04 00:00N 33°46' W 118°13'0 0.0
2017-Jun-03 23:30N 33°46' W 118°13'0 0.0
2017-Jun-03 23:00N 33°46' W 118°13'0 0.0
2017-Jun-03 22:30N 33°46' W 118°13'0 0.0
2017-Jun-03 22:00N 33°46' W 118°13'0 0.0
2017-Jun-03 21:30N 33°46' W 118°13'0 0.0
2017-Jun-03 21:00N 33°46' W 118°13'0 0.0
2017-Jun-03 20:30N 33°46' W 118°13'  
Track history (hours):
 
Tides and Currents Weather Stations Pressure Air Temp Water Temp Dewpoint Dewpoint Depression Visibility Wind Speed Wind Dir Waves Ship Positions

Arapaho

Owner: SAUSE BROTHERS OCEAN TOWING CO INC, LONG BEACH, CA. More information available from US FCC via Universal Licensing System and Coast Guard Vessel Documentation Center.

Last reported at 2017-Jun-13 19:41 UTC. Time now 2017-Jun-25 13:41 UTC.
Position N 33°46' W 118°13'.
Warning: this ship's position is 11 days out of date.

Length 37 m; draft 1.5 m.

Type: Towing. MMSI: 367004270.

Date/timePositionNaut miles runAvg speedWind from/ knotsBaromVisibWave heightAir tempDewpointWater temp
2017-Jun-13 19:41N 33°46' W 118°13'  
2017-Jun-09 19:52N 33°46' W 118°13'0 0.0
2017-Jun-09 19:20N 33°46' W 118°13'0 0.0
2017-Jun-09 18:54N 33°46' W 118°13'0 0.0
2017-Jun-09 17:53N 33°46' W 118°13'0 0.0
2017-Jun-09 17:28N 33°46' W 118°13'0 0.0
2017-Jun-09 16:38N 33°46' W 118°13'0 0.0
2017-Jun-09 16:29N 33°46' W 118°13'0 0.0
2017-Jun-09 14:24N 33°46' W 118°13'0 0.0
2017-Jun-09 01:30N 33°46' W 118°13'0 0.0
2017-Jun-08 23:39N 33°46' W 118°13'0 0.0
2017-Jun-08 22:08N 33°46' W 118°13'0 0.0
2017-Jun-08 20:55N 33°46' W 118°13'0 0.0
2017-Jun-08 20:26N 33°46' W 118°13'0 0.0
2017-Jun-08 18:45N 33°46' W 118°13'0 0.2
2017-Jun-08 17:19N 33°46' W 118°13'4 3.2
2017-Jun-08 16:09N 33°45' W 118°09'0 1.6
2017-Jun-08 15:56N 33°44' W 118°09'0 0.2
2017-Jun-08 15:22N 33°44' W 118°09'3 4.3
2017-Jun-08 14:34N 33°46' W 118°13'0 0.0
2017-Jun-08 12:02N 33°46' W 118°13'0 0.0
2017-Jun-08 08:57N 33°46' W 118°13'0 0.0
2017-Jun-08 08:24N 33°46' W 118°13'0 0.0
2017-Jun-08 07:52N 33°46' W 118°13'0 0.0
2017-Jun-08 07:27N 33°46' W 118°13'0 0.0
2017-Jun-08 06:49N 33°46' W 118°13'0 0.0
2017-Jun-08 05:46N 33°46' W 118°13'0 0.0
2017-Jun-08 05:29N 33°46' W 118°13'0 0.0
2017-Jun-08 05:00N 33°46' W 118°13'0 0.0
2017-Jun-08 04:29N 33°46' W 118°13'0 0.0
2017-Jun-08 04:00N 33°46' W 118°13'0 0.0
2017-Jun-08 01:48N 33°46' W 118°13'0 0.0
2017-Jun-08 01:29N 33°46' W 118°13'0 0.0
2017-Jun-08 00:45N 33°46' W 118°13'0 0.0
2017-Jun-08 00:29N 33°46' W 118°13'0 0.0
2017-Jun-07 23:59N 33°46' W 118°13'0 0.0
2017-Jun-07 22:31N 33°46' W 118°13'0 0.0
2017-Jun-07 22:20N 33°46' W 118°13'0 0.3
2017-Jun-07 21:53N 33°46' W 118°13'2 6.3
2017-Jun-07 21:30N 33°44' W 118°12'2 2.7
2017-Jun-07 20:50N 33°45' W 118°10'0 1.2
2017-Jun-07 20:27N 33°45' W 118°11'1 0.7
2017-Jun-07 18:39N 33°45' W 118°12'0 0.4
2017-Jun-07 18:27N 33°45' W 118°12'0 0.0
2017-Jun-07 06:06N 33°45' W 118°12'0 0.0
2017-Jun-07 03:57N 33°45' W 118°12'0 0.0
2017-Jun-07 03:23N 33°45' W 118°12'0 0.0
2017-Jun-07 02:40N 33°45' W 118°12'0 0.0
2017-Jun-07 01:54N 33°45' W 118°12'0 0.0
2017-Jun-07 01:30N 33°45' W 118°12'0 0.0
2017-Jun-07 01:00N 33°45' W 118°12'0 0.0
2017-Jun-07 00:30N 33°45' W 118°12'1 2.6
2017-Jun-07 00:00N 33°45' W 118°11'1 0.4
2017-Jun-06 22:08N 33°45' W 118°10'0 1.2
2017-Jun-06 21:58N 33°45' W 118°10'2 1.4
2017-Jun-06 20:32N 33°44' W 118°12'0 6.8
2017-Jun-06 20:30N 33°44' W 118°12'2 3.0
2017-Jun-06 19:53N 33°45' W 118°11'1 0.2
2017-Jun-06 16:31N 33°45' W 118°10'0 0.0
2017-Jun-06 16:29N 33°45' W 118°10'3 0.3
2017-Jun-06 07:03N 33°46' W 118°13'0 6.9
2017-Jun-06 07:00N 33°45' W 118°13'3 5.2
2017-Jun-06 06:30N 33°43' W 118°14'2 4.3
2017-Jun-06 05:57N 33°45' W 118°17'1 1.2
2017-Jun-06 05:24N 33°45' W 118°16'3 4.0
2017-Jun-06 04:45N 33°44' W 118°13'2 4.7
2017-Jun-06 04:24N 33°46' W 118°13'2 3.7
2017-Jun-06 03:45N 33°44' W 118°13'0 1.2
2017-Jun-06 03:25N 33°44' W 118°13'2 4.5
2017-Jun-06 02:58N 33°46' W 118°13'0 0.0
2017-Jun-06 00:27N 33°46' W 118°13'0 0.0
2017-Jun-05 21:36N 33°46' W 118°13'0 0.0
2017-Jun-05 21:29N 33°46' W 118°13'0 0.0
2017-Jun-05 20:44N 33°46' W 118°13'0 0.0
2017-Jun-05 20:28N 33°46' W 118°13'0 0.0
2017-Jun-05 19:59N 33°46' W 118°13'0 0.0
2017-Jun-05 19:30N 33°46' W 118°13'0 0.5
2017-Jun-05 19:00N 33°46' W 118°13'1 2.4
2017-Jun-05 18:24N 33°44' W 118°13'2 4.0
2017-Jun-05 18:00N 33°46' W 118°13'0 0.0
2017-Jun-05 17:30N 33°46' W 118°13'0 0.0
2017-Jun-05 16:29N 33°46' W 118°13'0 0.0
2017-Jun-05 15:51N 33°46' W 118°13'0 0.0
2017-Jun-05 15:30N 33°46' W 118°13'0 0.0
2017-Jun-05 15:00N 33°46' W 118°13'0 0.0
2017-Jun-05 14:00N 33°46' W 118°13'0 0.0
2017-Jun-05 13:29N 33°46' W 118°13'0 0.0
2017-Jun-05 12:59N 33°46' W 118°13'0 0.0
2017-Jun-05 12:30N 33°46' W 118°13'0 0.0
2017-Jun-05 11:56N 33°46' W 118°13'0 0.0
2017-Jun-05 11:29N 33°46' W 118°13'0 0.0
2017-Jun-05 10:59N 33°46' W 118°13'0 0.0
2017-Jun-05 10:30N 33°46' W 118°13'0 0.0
2017-Jun-05 09:58N 33°46' W 118°13'0 0.0
2017-Jun-05 09:30N 33°46' W 118°13'0 0.0
2017-Jun-05 08:48N 33°46' W 118°13'0 0.0
2017-Jun-05 08:28N 33°46' W 118°13'0 0.0
2017-Jun-05 07:53N 33°46' W 118°13'0 0.0
2017-Jun-05 07:30N 33°46' W 118°13'0 0.0
2017-Jun-05 07:00N 33°46' W 118°13'0 0.0
2017-Jun-05 06:28N 33°46' W 118°13'0 0.0
2017-Jun-05 06:00N 33°46' W 118°13'0 0.0
2017-Jun-05 05:30N 33°46' W 118°13'0 0.0
2017-Jun-05 05:00N 33°46' W 118°13'0 0.0
2017-Jun-05 04:30N 33°46' W 118°13'0 0.0
2017-Jun-05 04:00N 33°46' W 118°13'0 0.0
2017-Jun-05 03:29N 33°46' W 118°13'0 0.0
2017-Jun-05 03:00N 33°46' W 118°13'0 0.0
2017-Jun-05 02:30N 33°46' W 118°13'0 0.0
2017-Jun-05 02:00N 33°46' W 118°13'0 0.0
2017-Jun-05 01:30N 33°46' W 118°13'0 0.0
2017-Jun-05 01:00N 33°46' W 118°13'0 0.0
2017-Jun-05 00:30N 33°46' W 118°13'0 0.0
2017-Jun-05 00:00N 33°46' W 118°13'0 0.0
2017-Jun-04 23:30N 33°46' W 118°13'0 0.0
2017-Jun-04 23:00N 33°46' W 118°13'0 0.0
2017-Jun-04 22:31N 33°46' W 118°13'0 0.0
2017-Jun-04 21:59N 33°46' W 118°13'0 0.0
2017-Jun-04 21:30N 33°46' W 118°13'0 0.0
2017-Jun-04 21:00N 33°46' W 118°13'0 0.0
2017-Jun-04 20:30N 33°46' W 118°13'0 0.0
2017-Jun-04 20:00N 33°46' W 118°13'0 0.0
2017-Jun-04 19:11N 33°46' W 118°13'0 0.0
2017-Jun-04 19:00N 33°46' W 118°13'0 0.0
2017-Jun-04 18:30N 33°46' W 118°13'0 0.0
2017-Jun-04 18:00N 33°46' W 118°13'0 0.0
2017-Jun-04 17:30N 33°46' W 118°13'0 0.0
2017-Jun-04 17:00N 33°46' W 118°13'0 0.0
2017-Jun-04 16:30N 33°46' W 118°13'0 0.0
2017-Jun-04 16:00N 33°46' W 118°13'0 0.0
2017-Jun-04 15:30N 33°46' W 118°13'0 0.0
2017-Jun-04 15:00N 33°46' W 118°13'0 0.0
2017-Jun-04 14:30N 33°46' W 118°13'0 0.0
2017-Jun-04 13:29N 33°46' W 118°13'0 0.0
2017-Jun-04 13:00N 33°46' W 118°13'0 0.0
2017-Jun-04 12:30N 33°46' W 118°13'0 0.0
2017-Jun-04 12:00N 33°46' W 118°13'0 0.0
2017-Jun-04 11:30N 33°46' W 118°13'0 0.0
2017-Jun-04 10:32N 33°46' W 118°13'0 0.0
2017-Jun-04 10:30N 33°46' W 118°13'0 0.0
2017-Jun-04 10:00N 33°46' W 118°13'0 0.0
2017-Jun-04 09:30N 33°46' W 118°13'0 0.0
2017-Jun-04 08:44N 33°46' W 118°13'0 0.0
2017-Jun-04 08:05N 33°46' W 118°13'0 0.0
2017-Jun-04 07:41N 33°46' W 118°13'0 0.0
2017-Jun-04 07:27N 33°46' W 118°13'0 0.0
2017-Jun-04 06:59N 33°46' W 118°13'0 0.0
2017-Jun-04 06:30N 33°46' W 118°13'0 0.0
2017-Jun-04 06:00N 33°46' W 118°13'0 0.0
2017-Jun-04 05:30N 33°46' W 118°13'0 0.0
2017-Jun-04 05:01N 33°46' W 118°13'0 0.0
2017-Jun-04 04:30N 33°46' W 118°13'0 0.0
2017-Jun-04 03:59N 33°46' W 118°13'0 0.0
2017-Jun-04 03:30N 33°46' W 118°13'0 0.0
2017-Jun-04 03:00N 33°46' W 118°13'0 0.0
2017-Jun-04 02:30N 33°46' W 118°13'0 0.0
2017-Jun-04 02:00N 33°46' W 118°13'0 0.0
2017-Jun-04 01:30N 33°46' W 118°13'0 0.0
2017-Jun-04 01:00N 33°46' W 118°13'0 0.0
2017-Jun-04 00:30N 33°46' W 118°13'0 0.0
2017-Jun-04 00:00N 33°46' W 118°13'0 0.0
2017-Jun-03 23:30N 33°46' W 118°13'0 0.0
2017-Jun-03 23:00N 33°46' W 118°13'0 0.0
2017-Jun-03 22:30N 33°46' W 118°13'0 0.0
2017-Jun-03 22:00N 33°46' W 118°13'0 0.0
2017-Jun-03 21:30N 33°46' W 118°13'0 0.0
2017-Jun-03 21:00N 33°46' W 118°13'0 0.0
2017-Jun-03 20:30N 33°46' W 118°13'  

Dump ship's entire track history